Time;durP1;ratioP1;P1;durP2;ratioP2;P2;SDS_P1;SDS_P2;PMS_P1;PMS_P2;Temp;Humidity;BMP_temperature;BMP_pressure;BME280_temperature;BME280_humidity;BME280_pressure;Samples;Min_cycle;Max_cycle;Signal;HPM_P1;HPM_P2
2021/08/10 00:02:26;;;;;;;8.10;3.78;;;24.00;64.90;;;;;;5035422;28;20029;-74
2021/08/10 00:04:52;;;;;;;6.10;3.97;;;24.00;64.90;;;;;;5034015;28;20034;-74
2021/08/10 00:07:18;;;;;;;5.78;3.70;;;24.00;64.90;;;;;;5034737;28;20045;-74
2021/08/10 00:09:43;;;;;;;6.22;4.07;;;23.90;65.00;;;;;;5034983;28;20126;-74
2021/08/10 00:12:10;;;;;;;6.90;3.80;;;23.90;65.10;;;;;;5035154;28;20194;-74
2021/08/10 00:14:36;;;;;;;7.78;3.92;;;24.00;65.20;;;;;;5035139;28;20036;-74
2021/08/10 00:17:02;;;;;;;6.75;4.10;;;23.90;65.20;;;;;;5035058;28;20028;-74
2021/08/10 00:19:28;;;;;;;6.70;3.88;;;23.90;65.20;;;;;;5035094;28;20021;-74
2021/08/10 00:21:54;;;;;;;6.35;4.05;;;23.90;65.30;;;;;;5034830;28;20067;-74
2021/08/10 00:24:20;;;;;;;9.00;4.57;;;23.90;65.60;;;;;;5034010;28;20021;-74
2021/08/10 00:26:46;;;;;;;8.13;4.70;;;23.90;65.70;;;;;;5035303;28;20025;-73
2021/08/10 00:29:11;;;;;;;8.05;4.53;;;23.90;65.90;;;;;;5037898;28;20029;-73
2021/08/10 00:31:37;;;;;;;5.95;4.50;;;23.80;66.10;;;;;;5043244;28;20113;-73
2021/08/10 00:34:02;;;;;;;7.10;4.82;;;23.80;66.40;;;;;;5050767;28;20048;-73
2021/08/10 00:36:28;;;;;;;6.20;4.68;;;23.80;66.70;;;;;;5038226;28;20021;-74
2021/08/10 00:38:54;;;;;;;6.60;4.75;;;23.70;66.80;;;;;;5034253;28;20367;-74
2021/08/10 00:41:20;;;;;;;7.55;4.75;;;23.70;67.00;;;;;;5033119;28;20654;-74
2021/08/10 00:43:47;;;;;;;6.90;4.57;;;23.60;67.20;;;;;;5034167;28;20332;-73
2021/08/10 00:46:13;;;;;;;8.35;4.60;;;23.60;67.50;;;;;;5034286;28;20112;-74
2021/08/10 00:48:39;;;;;;;6.80;4.55;;;23.60;67.70;;;;;;5034277;28;20439;-74
2021/08/10 00:51:08;;;;;;;7.80;4.63;;;23.50;67.80;;;;;;5034266;28;20088;-74
2021/08/10 00:53:34;;;;;;;7.88;4.93;;;23.50;68.10;;;;;;5034253;28;20075;-73
2021/08/10 00:56:01;;;;;;;7.88;4.80;;;23.50;68.10;;;;;;5032875;28;20029;-73
2021/08/10 00:58:28;;;;;;;7.28;4.97;;;23.50;68.40;;;;;;5033280;28;20505;-73
2021/08/10 01:00:53;;;;;;;6.85;4.78;;;23.40;68.50;;;;;;5034303;28;20021;-73
2021/08/10 01:03:19;;;;;;;8.50;5.40;;;23.40;68.60;;;;;;5034105;28;20022;-74
2021/08/10 01:05:48;;;;;;;9.07;5.60;;;23.40;68.80;;;;;;5034141;28;20037;-75
2021/08/10 01:08:38;;;;;;;8.57;4.93;;;23.30;68.90;;;;;;5032341;28;20041;-75
2021/08/10 01:11:20;;;;;;;7.70;4.90;;;23.30;69.20;;;;;;5034071;28;20355;-74
2021/08/10 01:13:54;;;;;;;8.57;5.43;;;23.30;69.40;;;;;;5032759;28;20056;-74
2021/08/10 01:16:33;;;;;;;8.10;5.28;;;23.30;69.80;;;;;;5032660;28;20060;-73
2021/08/10 01:19:23;;;;;;;7.55;5.65;;;23.20;70.10;;;;;;5033980;28;20021;-74
2021/08/10 01:21:54;;;;;;;8.90;6.03;;;23.20;70.50;;;;;;5033800;28;20022;-73
2021/08/10 01:24:22;;;;;;;10.60;6.45;;;23.10;70.90;;;;;;5032302;28;20474;-74
2021/08/10 01:27:19;;;;;;;8.70;6.20;;;23.10;71.40;;;;;;5032641;28;20017;-73
2021/08/10 01:29:49;;;;;;;8.90;5.97;;;23.00;72.10;;;;;;5033515;28;20026;-74
2021/08/10 01:32:15;;;;;;;8.82;5.82;;;23.00;72.50;;;;;;5033572;28;20037;-75
2021/08/10 01:34:43;;;;;;;10.48;6.28;;;22.90;72.90;;;;;;5034097;28;20033;-74
2021/08/10 01:37:18;;;;;;;9.55;6.72;;;22.90;73.40;;;;;;5037862;28;20024;-74
2021/08/10 01:39:50;;;;;;;9.25;6.10;;;22.90;73.70;;;;;;5036531;28;20072;-74
2021/08/10 01:42:17;;;;;;;7.72;6.25;;;22.90;74.00;;;;;;5037156;28;20345;-74
2021/08/10 01:44:43;;;;;;;9.77;6.20;;;22.90;74.10;;;;;;5037840;28;20044;-74
2021/08/10 01:47:10;;;;;;;10.25;6.38;;;22.90;74.20;;;;;;5037982;28;20022;-73
2021/08/10 01:49:38;;;;;;;8.60;6.20;;;22.90;74.50;;;;;;5036396;28;20068;-74
2021/08/10 01:52:05;;;;;;;10.63;6.28;;;22.90;75.20;;;;;;5069622;28;20021;-74
2021/08/10 01:54:31;;;;;;;9.45;6.15;;;22.90;74.70;;;;;;5036370;28;20033;-73
2021/08/10 01:56:59;;;;;;;7.40;5.70;;;22.80;74.80;;;;;;5037849;28;20071;-74
2021/08/10 01:59:26;;;;;;;8.43;6.55;;;22.80;74.90;;;;;;5037538;28;20021;-73
2021/08/10 02:01:53;;;;;;;10.02;6.65;;;22.80;75.00;;;;;;5039750;28;20055;-73
2021/08/10 02:04:20;;;;;;;8.27;5.93;;;22.80;75.00;;;;;;5038488;28;20025;-72
2021/08/10 02:06:47;;;;;;;8.35;5.88;;;22.80;75.10;;;;;;5039125;28;20044;-71
2021/08/10 02:09:18;;;;;;;7.88;5.88;;;22.80;75.20;;;;;;5042268;28;20429;-72
2021/08/10 02:11:44;;;;;;;8.25;6.47;;;22.70;75.30;;;;;;5037299;28;20021;-71
2021/08/10 02:14:13;;;;;;;8.90;5.88;;;22.70;75.30;;;;;;5037205;28;20018;-72
2021/08/10 02:16:39;;;;;;;9.25;6.30;;;22.70;75.50;;;;;;5036056;28;20414;-72
2021/08/10 02:19:07;;;;;;;8.60;5.95;;;22.70;75.50;;;;;;5037048;28;20075;-72
2021/08/10 02:21:43;;;;;;;7.95;5.80;;;22.70;75.60;;;;;;5037012;28;20171;-71
2021/08/10 02:24:19;;;;;;;10.07;5.80;;;22.60;75.50;;;;;;5037188;28;20021;-72
2021/08/10 02:26:46;;;;;;;;;;;22.60;75.50;;;;;;5037471;28;20498;-72
2021/08/10 02:29:14;;;;;;;8.10;6.35;;;22.60;75.00;;;;;;5036894;28;20374;-72
2021/08/10 02:31:40;;;;;;;8.25;5.70;;;22.60;75.40;;;;;;5036584;28;20053;-72
2021/08/10 02:34:07;;;;;;;7.80;5.82;;;22.60;75.50;;;;;;5037041;28;20017;-72
2021/08/10 02:36:34;;;;;;;7.88;5.75;;;22.60;75.50;;;;;;5035465;28;20455;-71
2021/08/10 02:39:05;;;;;;;11.95;5.90;;;22.60;75.50;;;;;;5036887;28;20111;-72
2021/08/10 02:41:31;;;;;;;7.30;5.55;;;22.60;75.50;;;;;;5035731;28;20411;-72
2021/08/10 02:43:57;;;;;;;8.50;5.93;;;22.60;75.30;;;;;;5036625;28;20041;-72
2021/08/10 02:46:23;;;;;;;9.38;6.20;;;22.70;75.40;;;;;;5035257;28;20474;-72
2021/08/10 02:48:49;;;;;;;7.90;5.90;;;22.70;75.50;;;;;;5037036;28;20052;-72
2021/08/10 02:51:14;;;;;;;9.30;5.70;;;22.70;75.50;;;;;;5036423;28;20101;-72
2021/08/10 02:53:40;;;;;;;9.55;5.90;;;22.70;75.50;;;;;;5036785;28;20040;-72
2021/08/10 02:56:08;;;;;;;11.25;6.07;;;22.60;75.50;;;;;;5036465;28;20445;-72
2021/08/10 02:58:40;;;;;;;7.75;6.00;;;22.60;75.70;;;;;;5036280;28;20022;-72
2021/08/10 03:01:09;;;;;;;9.73;6.13;;;22.60;75.70;;;;;;5036831;28;20021;-72
2021/08/10 03:03:37;;;;;;;8.23;6.38;;;22.60;75.80;;;;;;5036490;28;20033;-72
2021/08/10 03:06:05;;;;;;;8.70;6.57;;;22.60;76.00;;;;;;5036166;28;20030;-72
2021/08/10 03:08:33;;;;;;;8.57;6.25;;;22.60;76.00;;;;;;5036061;28;20049;-72
2021/08/10 03:11:01;;;;;;;8.07;6.15;;;22.60;76.20;;;;;;5018589;28;20017;-72
2021/08/10 03:13:34;;;;;;;10.27;6.85;;;22.60;76.30;;;;;;5036021;28;20025;-72
2021/08/10 03:16:01;;;;;;;7.88;6.68;;;22.70;76.80;;;;;;5036362;28;20481;-72
2021/08/10 03:18:34;;;;;;;11.13;7.03;;;22.80;76.90;;;;;;5034713;28;20127;-72
2021/08/10 03:21:01;;;;;;;8.88;6.63;;;22.90;77.10;;;;;;5035147;28;20053;-72
2021/08/10 03:23:29;;;;;;;7.80;6.38;;;23.00;77.10;;;;;;5035908;28;20045;-72
2021/08/10 03:25:55;;;;;;;10.10;6.80;;;23.20;77.00;;;;;;5035565;28;20345;-72
2021/08/10 03:28:26;;;;;;;8.40;6.63;;;23.50;76.80;;;;;;5036036;28;20100;-72
2021/08/10 03:30:54;;;;;;;9.75;6.80;;;23.60;76.50;;;;;;5035729;28;20022;-72
2021/08/10 03:33:23;;;;;;;9.07;6.82;;;23.90;76.10;;;;;;5034674;28;20026;-72
2021/08/10 03:35:51;;;;;;;8.43;6.60;;;24.10;75.60;;;;;;5035636;28;20043;-72
2021/08/10 03:38:17;;;;;;;9.00;6.75;;;24.30;75.10;;;;;;5035569;28;20075;-72
2021/08/10 03:40:42;;;;;;;9.27;6.65;;;24.50;74.50;;;;;;5037094;28;20026;-71
2021/08/10 03:43:08;;;;;;;10.43;6.50;;;24.60;74.20;;;;;;5037547;28;20026;-72
2021/08/10 03:45:35;;;;;;;10.05;6.13;;;24.80;74.70;;;;;;5037796;28;20029;-70
2021/08/10 03:48:02;;;;;;;8.80;7.10;;;25.00;73.70;;;;;;5037323;28;20032;-71
2021/08/10 03:50:28;;;;;;;7.88;6.30;;;25.20;73.00;;;;;;5035082;28;20080;-72
2021/08/10 03:52:55;;;;;;;8.27;6.68;;;25.40;72.40;;;;;;5034027;28;20453;-72
2021/08/10 03:55:22;;;;;;;8.10;6.82;;;25.60;72.00;;;;;;5035204;28;20355;-74
2021/08/10 03:57:49;;;;;;;10.40;6.70;;;25.80;71.50;;;;;;5034294;28;20041;-72
2021/08/10 04:00:16;;;;;;;8.48;6.80;;;26.10;71.10;;;;;;5031802;28;20474;-73
2021/08/10 04:02:43;;;;;;;11.73;6.78;;;26.30;70.50;;;;;;5033106;28;20018;-72
2021/08/10 04:05:11;;;;;;;9.75;7.40;;;26.50;69.80;;;;;;5034064;28;20079;-73
2021/08/10 04:07:42;;;;;;;8.40;6.45;;;26.70;69.50;;;;;;5033356;28;20049;-78
2021/08/10 04:10:09;;;;;;;8.77;6.65;;;27.00;69.00;;;;;;5034826;28;20025;-72
2021/08/10 04:12:35;;;;;;;12.18;7.13;;;27.10;68.30;;;;;;5034915;28;20013;-72
2021/08/10 04:15:01;;;;;;;10.00;6.32;;;27.30;67.80;;;;;;5031916;28;20078;-73
2021/08/10 04:17:30;;;;;;;9.32;6.57;;;27.40;67.50;;;;;;5032498;28;20033;-73
2021/08/10 04:19:57;;;;;;;8.77;6.63;;;27.60;67.30;;;;;;5032769;28;20129;-73
2021/08/10 04:22:23;;;;;;;8.80;6.78;;;27.70;66.70;;;;;;5032442;28;20108;-70
2021/08/10 04:24:49;;;;;;;9.68;6.80;;;27.90;66.30;;;;;;5033860;28;20064;-68
2021/08/10 04:27:16;;;;;;;8.32;6.93;;;28.20;65.90;;;;;;5031796;28;20515;-68
2021/08/10 04:29:41;;;;;;;8.10;6.35;;;28.30;65.50;;;;;;5031948;28;20032;-69
2021/08/10 04:32:08;;;;;;;8.57;6.50;;;28.50;65.10;;;;;;5033671;28;20371;-69
2021/08/10 04:34:35;;;;;;;8.23;6.22;;;28.70;64.70;;;;;;5032305;28;20021;-69
2021/08/10 04:37:01;;;;;;;10.15;6.50;;;28.90;64.30;;;;;;5033196;28;20029;-69
2021/08/10 04:39:28;;;;;;;8.13;6.70;;;29.20;63.90;;;;;;5064746;28;20023;-68
2021/08/10 04:41:54;;;;;;;9.10;6.70;;;29.30;63.10;;;;;;5033649;28;20027;-69
2021/08/10 04:44:20;;;;;;;8.73;6.75;;;29.60;63.00;;;;;;5030774;28;20476;-68
2021/08/10 04:46:45;;;;;;;8.85;6.65;;;29.70;62.40;;;;;;5031436;28;20029;-68
2021/08/10 04:49:11;;;;;;;8.30;6.80;;;29.80;62.00;;;;;;5031385;28;20025;-69
2021/08/10 04:51:37;;;;;;;10.80;6.47;;;30.00;61.60;;;;;;5033744;28;20029;-69
2021/08/10 04:54:02;;;;;;;10.30;6.43;;;30.10;61.20;;;;;;5033831;28;20413;-69
2021/08/10 04:56:28;;;;;;;9.25;6.53;;;30.30;61.00;;;;;;5033480;28;20025;-69
2021/08/10 04:58:54;;;;;;;9.23;6.60;;;30.40;60.60;;;;;;5032848;28;20028;-69
2021/08/10 05:01:19;;;;;;;11.15;7.20;;;30.40;60.30;;;;;;5031534;28;20095;-69
2021/08/10 05:03:45;;;;;;;11.00;7.20;;;30.60;60.20;;;;;;5032054;28;20076;-69
2021/08/10 05:06:11;;;;;;;7.93;6.47;;;30.80;60.20;;;;;;5032841;28;20043;-68
2021/08/10 05:08:36;;;;;;;8.68;6.95;;;31.10;59.60;;;;;;5026679;28;20045;-69
2021/08/10 05:11:02;;;;;;;8.82;6.65;;;31.30;59.10;;;;;;5039178;28;20053;-69
2021/08/10 05:13:28;;;;;;;10.30;6.65;;;31.50;58.40;;;;;;5029872;28;20112;-69
2021/08/10 05:15:54;;;;;;;10.27;7.22;;;31.70;58.20;;;;;;5033088;28;20096;-69
2021/08/10 05:18:20;;;;;;;9.95;6.53;;;31.80;57.60;;;;;;5029803;28;20084;-70
2021/08/10 05:20:46;;;;;;;9.70;6.82;;;32.00;57.60;;;;;;5031840;28;20044;-71
2021/08/10 05:23:11;;;;;;;8.73;6.78;;;32.10;57.30;;;;;;5031136;28;20812;-70
2021/08/10 05:25:37;;;;;;;9.57;6.10;;;32.40;56.90;;;;;;5033469;28;20420;-70
2021/08/10 05:28:03;;;;;;;8.82;6.38;;;32.70;56.20;;;;;;5027696;28;20025;-70
2021/08/10 05:30:29;;;;;;;8.38;6.80;;;32.80;55.60;;;;;;5031469;28;20029;-71
2021/08/10 05:32:54;;;;;;;8.48;6.60;;;32.90;55.30;;;;;;5030836;28;20075;-73
2021/08/10 05:35:20;;;;;;;8.80;6.25;;;33.00;54.90;;;;;;5032873;28;20025;-74
2021/08/10 05:37:46;;;;;;;10.18;6.63;;;33.10;54.80;;;;;;5031629;28;20367;-73
2021/08/10 05:40:12;;;;;;;7.72;6.40;;;33.30;54.70;;;;;;5033360;28;20070;-70
2021/08/10 05:42:38;;;;;;;14.82;6.68;;;33.50;54.00;;;;;;5033068;28;20130;-73
2021/08/10 05:45:04;;;;;;;9.23;5.88;;;33.80;53.60;;;;;;5031511;28;20519;-72
2021/08/10 05:47:30;;;;;;;7.50;6.00;;;33.80;53.30;;;;;;5031323;28;20028;-73
2021/08/10 05:49:55;;;;;;;9.05;6.85;;;33.90;53.20;;;;;;5032233;28;20308;-72
2021/08/10 05:52:21;;;;;;;12.02;6.93;;;34.00;53.00;;;;;;5031131;28;20091;-74
2021/08/10 05:54:47;;;;;;;10.20;6.63;;;34.20;52.60;;;;;;5028764;28;20099;-73
2021/08/10 05:57:12;;;;;;;12.65;6.78;;;34.30;52.60;;;;;;5031361;28;20017;-73
2021/08/10 05:59:38;;;;;;;8.23;6.40;;;34.50;52.40;;;;;;5030950;28;20345;-73
2021/08/10 06:02:05;;;;;;;12.02;6.80;;;34.60;52.20;;;;;;5033887;28;20057;-74
2021/08/10 06:04:31;;;;;;;10.40;6.32;;;34.70;51.80;;;;;;5050651;28;20017;-76
2021/08/10 06:06:58;;;;;;;7.88;5.82;;;34.90;51.10;;;;;;5034334;28;20100;-76
2021/08/10 06:09:24;;;;;;;8.10;6.10;;;35.10;51.10;;;;;;5033260;28;20071;-76
2021/08/10 06:11:49;;;;;;;7.82;6.40;;;35.20;50.60;;;;;;5032848;28;20022;-75
2021/08/10 06:14:15;;;;;;;7.70;6.18;;;35.30;50.60;;;;;;5031316;28;20453;-73
2021/08/10 06:16:41;;;;;;;7.85;5.65;;;35.50;50.60;;;;;;5030394;28;20527;-73
2021/08/10 06:19:07;;;;;;;7.55;5.90;;;35.60;50.10;;;;;;5030591;28;20087;-73
2021/08/10 06:21:32;;;;;;;8.77;5.70;;;35.70;49.80;;;;;;5036225;28;20379;-73
2021/08/10 06:24:00;;;;;;;7.93;5.60;;;36.00;49.60;;;;;;5034671;28;20520;-73
2021/08/10 06:26:25;;;;;;;8.57;5.80;;;36.10;49.20;;;;;;5034484;28;20033;-73
2021/08/10 06:28:51;;;;;;;8.07;5.40;;;36.10;48.80;;;;;;5033741;28;20444;-74
2021/08/10 06:31:17;;;;;;;10.82;5.30;;;36.00;48.50;;;;;;5035126;28;20020;-73
2021/08/10 06:33:44;;;;;;;6.60;5.50;;;36.00;48.80;;;;;;5035037;28;20098;-73
2021/08/10 06:36:09;;;;;;;7.70;6.22;;;36.10;48.70;;;;;;5033873;28;20022;-73
2021/08/10 06:38:35;;;;;;;9.32;5.38;;;36.20;48.60;;;;;;5036305;28;20345;-74
2021/08/10 06:41:02;;;;;;;8.77;5.70;;;36.20;48.00;;;;;;5036424;28;20029;-73
2021/08/10 06:43:28;;;;;;;10.18;5.28;;;36.30;48.00;;;;;;5035139;28;20030;-73
2021/08/10 06:45:53;;;;;;;6.68;5.28;;;36.50;48.20;;;;;;5036040;28;20053;-73
2021/08/10 06:48:19;;;;;;;7.25;5.25;;;36.60;47.70;;;;;;5036101;28;20044;-73
2021/08/10 06:50:45;;;;;;;9.50;5.45;;;36.70;47.70;;;;;;5037479;28;20029;-73
2021/08/10 06:53:13;;;;;;;9.75;5.10;;;36.80;47.30;;;;;;5036125;28;20065;-73
2021/08/10 06:55:39;;;;;;;8.30;5.30;;;36.90;47.10;;;;;;5036785;28;20021;-73
2021/08/10 06:58:05;;;;;;;8.65;5.25;;;37.00;47.00;;;;;;5036362;28;20073;-72
2021/08/10 07:00:30;;;;;;;5.90;5.20;;;37.00;47.40;;;;;;5034842;28;20033;-72
2021/08/10 07:02:56;;;;;;;7.15;5.25;;;36.90;46.90;;;;;;5034844;28;20066;-73
2021/08/10 07:05:22;;;;;;;9.60;5.40;;;36.90;46.80;;;;;;5036162;28;20038;-72
2021/08/10 07:07:48;;;;;;;9.55;5.43;;;37.00;47.10;;;;;;5035570;28;20471;-72
2021/08/10 07:10:13;;;;;;;6.20;5.35;;;37.00;47.10;;;;;;5035989;28;20024;-72
2021/08/10 07:12:39;;;;;;;8.43;5.30;;;37.10;47.10;;;;;;5036025;28;20075;-72
2021/08/10 07:15:05;;;;;;;13.15;4.85;;;37.20;46.70;;;;;;5034733;28;20029;-72
2021/08/10 07:17:31;;;;;;;7.65;5.00;;;37.20;46.50;;;;;;5035617;28;20025;-72
2021/08/10 07:19:57;;;;;;;8.30;5.05;;;37.30;46.40;;;;;;5035861;28;20571;-73
2021/08/10 07:22:22;;;;;;;8.18;5.32;;;37.40;46.30;;;;;;5035558;28;20025;-73
2021/08/10 07:24:48;;;;;;;7.30;5.22;;;37.40;46.10;;;;;;5035730;28;20379;-72
2021/08/10 07:27:14;;;;;;;6.78;5.03;;;37.20;45.90;;;;;;5035624;28;20092;-72
2021/08/10 07:29:40;;;;;;;7.32;5.43;;;37.30;46.10;;;;;;5034479;28;20067;-73
2021/08/10 07:32:06;;;;;;;7.03;4.93;;;37.40;46.20;;;;;;5034760;28;20093;-73
2021/08/10 07:34:32;;;;;;;8.13;5.30;;;37.50;46.60;;;;;;5034785;28;20452;-73
2021/08/10 07:36:57;;;;;;;6.00;5.15;;;37.60;45.80;;;;;;5035218;28;20071;-73
2021/08/10 07:39:24;;;;;;;6.93;5.10;;;37.70;45.70;;;;;;5035376;28;20037;-73
2021/08/10 07:41:49;;;;;;;8.55;5.15;;;37.70;45.50;;;;;;5034133;28;20026;-73
2021/08/10 07:44:15;;;;;;;6.65;4.93;;;37.70;45.30;;;;;;5035087;28;20105;-72
2021/08/10 07:46:41;;;;;;;7.60;5.10;;;37.80;45.30;;;;;;5035058;28;20044;-72
2021/08/10 07:49:07;;;;;;;8.70;5.15;;;37.90;45.20;;;;;;5035362;28;20029;-73
2021/08/10 07:51:32;;;;;;;7.82;5.50;;;37.90;45.00;;;;;;5034075;28;20025;-72
2021/08/10 07:53:58;;;;;;;7.55;5.45;;;37.90;45.00;;;;;;5035293;28;20479;-73
2021/08/10 07:56:24;;;;;;;9.52;4.93;;;37.90;45.20;;;;;;5035243;28;20180;-72
2021/08/10 07:58:49;;;;;;;7.88;5.05;;;38.10;45.10;;;;;;5033622;28;20021;-73
2021/08/10 08:01:15;;;;;;;10.20;5.05;;;38.30;44.90;;;;;;5033796;28;20064;-72
2021/08/10 08:03:41;;;;;;;6.35;5.00;;;38.30;44.60;;;;;;5035160;28;20025;-72
2021/08/10 08:06:06;;;;;;;9.95;5.40;;;38.40;44.50;;;;;;5034790;28;20029;-72
2021/08/10 08:08:32;;;;;;;7.75;5.38;;;38.50;44.50;;;;;;5035069;28;20041;-73
2021/08/10 08:10:58;;;;;;;7.57;5.40;;;38.60;44.40;;;;;;5034968;28;20361;-73
2021/08/10 08:13:25;;;;;;;6.38;4.75;;;38.60;44.30;;;;;;5034444;28;20017;-73
2021/08/10 08:15:52;;;;;;;7.68;5.30;;;38.60;44.00;;;;;;5033807;28;20029;-73
2021/08/10 08:18:18;;;;;;;6.75;5.15;;;38.60;44.10;;;;;;5035171;28;20033;-72
2021/08/10 08:20:49;;;;;;;6.57;5.20;;;38.50;44.20;;;;;;5034763;28;20060;-72
2021/08/10 08:23:16;;;;;;;7.25;5.38;;;38.40;44.10;;;;;;5033703;28;20028;-72
2021/08/10 08:25:42;;;;;;;10.73;5.40;;;38.60;44.20;;;;;;5033550;28;20087;-73
2021/08/10 08:28:09;;;;;;;8.05;4.88;;;38.60;44.00;;;;;;5034992;28;20025;-73
2021/08/10 08:30:38;;;;;;;7.07;4.95;;;38.70;43.90;;;;;;5034914;28;20053;-73
2021/08/10 08:33:09;;;;;;;6.60;5.13;;;38.60;43.80;;;;;;5033477;28;20025;-73
2021/08/10 08:35:35;;;;;;;8.20;5.00;;;38.70;43.90;;;;;;5034403;28;20025;-73
2021/08/10 08:38:01;;;;;;;10.88;4.72;;;38.70;44.00;;;;;;5034249;28;20029;-73
2021/08/10 08:40:27;;;;;;;8.60;5.30;;;38.70;44.40;;;;;;5034380;28;20413;-72
2021/08/10 08:42:53;;;;;;;8.23;5.18;;;38.60;44.20;;;;;;5033335;28;20116;-72
2021/08/10 08:45:19;;;;;;;7.30;4.88;;;38.80;44.00;;;;;;5033621;28;20033;-72
2021/08/10 08:47:52;;;;;;;7.57;4.90;;;39.10;44.30;;;;;;5033281;28;20021;-73
2021/08/10 08:50:19;;;;;;;5.88;4.80;;;39.30;43.80;;;;;;5034111;28;20013;-73
2021/08/10 08:52:51;;;;;;;6.50;4.90;;;39.50;43.90;;;;;;5032890;28;20032;-73
2021/08/10 08:55:19;;;;;;;6.25;4.80;;;39.60;43.30;;;;;;5032965;28;20029;-74
2021/08/10 08:57:44;;;;;;;7.13;5.10;;;39.60;43.20;;;;;;5032865;28;20025;-73
2021/08/10 09:00:16;;;;;;;7.93;5.00;;;39.50;43.10;;;;;;5034063;28;20029;-72
2021/08/10 09:02:44;;;;;;;6.63;5.07;;;39.40;42.90;;;;;;5034185;28;20032;-73
2021/08/10 09:05:11;;;;;;;5.68;4.80;;;39.30;43.40;;;;;;5033960;28;20025;-72
2021/08/10 09:07:37;;;;;;;7.68;4.80;;;39.30;43.40;;;;;;5032351;28;20049;-72
2021/08/10 09:10:17;;;;;;;6.65;4.97;;;39.40;43.50;;;;;;5032844;28;20017;-73
2021/08/10 09:12:50;;;;;;;7.35;4.75;;;39.30;43.00;;;;;;5032706;28;20041;-72
2021/08/10 09:15:37;;;;;;;6.20;4.60;;;39.20;43.10;;;;;;5032947;28;20025;-72
2021/08/10 09:18:22;;;;;;;8.25;5.25;;;39.00;43.00;;;;;;5032695;28;20420;-72
2021/08/10 09:21:12;;;;;;;12.07;4.93;;;39.10;43.20;;;;;;5032856;28;20460;-72
2021/08/10 09:24:06;;;;;;;5.50;4.70;;;39.20;43.00;;;;;;5034241;28;20087;-72
2021/08/10 09:26:36;;;;;;;;;;;39.20;42.90;;;;;;5031166;28;20106;-72
2021/08/10 09:29:03;;;;;;;7.13;4.50;;;39.30;43.40;;;;;;5034014;28;19901;-72
2021/08/10 09:31:28;;;;;;;9.10;4.65;;;39.30;43.10;;;;;;5033733;28;20449;-72
2021/08/10 09:34:15;;;;;;;6.72;4.97;;;39.30;43.10;;;;;;5033403;28;20029;-72
2021/08/10 09:36:41;;;;;;;5.75;4.72;;;39.30;42.70;;;;;;5031743;28;20060;-72
2021/08/10 09:39:07;;;;;;;8.15;5.03;;;39.20;42.80;;;;;;5033788;28;20096;-72
2021/08/10 09:41:34;;;;;;;6.97;4.75;;;39.20;43.40;;;;;;5033655;28;20112;-72
2021/08/10 09:44:13;;;;;;;6.57;4.85;;;39.30;42.80;;;;;;5033476;28;20013;-72
2021/08/10 09:46:45;;;;;;;7.13;5.47;;;39.10;42.90;;;;;;5032470;28;20036;-72
2021/08/10 09:49:11;;;;;;;6.55;5.00;;;39.00;43.00;;;;;;5032330;28;20029;-72
2021/08/10 09:51:46;;;;;;;8.65;4.63;;;38.90;43.00;;;;;;5032540;28;20091;-71
2021/08/10 09:54:12;;;;;;;10.45;5.15;;;38.90;42.90;;;;;;5033628;28;20348;-72
2021/08/10 09:56:55;;;;;;;8.68;4.70;;;38.80;42.60;;;;;;5037531;28;20021;-72
2021/08/10 09:59:27;;;;;;;7.63;4.38;;;38.70;42.90;;;;;;5039940;28;20104;-72
2021/08/10 10:01:57;;;;;;;7.55;4.20;;;38.90;43.50;;;;;;5038132;28;20033;-72
2021/08/10 10:04:30;;;;;;;7.15;4.25;;;39.00;43.00;;;;;;5036546;28;20053;-72
2021/08/10 10:06:58;;;;;;;7.95;4.68;;;39.20;42.80;;;;;;5037506;28;20045;-72
2021/08/10 10:09:26;;;;;;;6.13;4.13;;;39.00;42.30;;;;;;5036247;28;20522;-72
2021/08/10 10:11:55;;;;;;;13.95;4.65;;;39.00;42.40;;;;;;5036296;28;20022;-72
2021/08/10 10:14:22;;;;;;;8.43;4.50;;;39.00;42.40;;;;;;5037131;28;20026;-72
2021/08/10 10:16:52;;;;;;;6.80;4.55;;;39.00;42.30;;;;;;5035876;28;20054;-72
2021/08/10 10:19:20;;;;;;;8.02;4.45;;;38.90;42.60;;;;;;5035755;28;20025;-72
2021/08/10 10:21:57;;;;;;;6.47;4.10;;;38.80;43.00;;;;;;5036951;28;20395;-72
2021/08/10 10:24:25;;;;;;;7.47;4.28;;;38.80;43.30;;;;;;5035868;28;20403;-72
2021/08/10 10:27:03;;;;;;;9.98;4.68;;;38.80;43.40;;;;;;5036822;28;20040;-72
2021/08/10 10:29:29;;;;;;;7.05;4.20;;;39.20;43.20;;;;;;5037187;28;20025;-73
2021/08/10 10:31:56;;;;;;;6.30;4.20;;;39.40;42.90;;;;;;5036743;28;20109;-72
2021/08/10 10:34:22;;;;;;;6.90;4.57;;;39.60;42.50;;;;;;5035582;28;20021;-72
2021/08/10 10:36:49;;;;;;;6.15;4.50;;;39.50;42.60;;;;;;5036810;28;20024;-73
2021/08/10 10:39:30;;;;;;;6.07;4.22;;;39.40;42.60;;;;;;5035421;28;20033;-73
2021/08/10 10:41:59;;;;;;;6.32;4.65;;;39.20;42.70;;;;;;5036720;28;20022;-73
2021/08/10 10:44:45;;;;;;;8.30;4.38;;;39.30;43.20;;;;;;5036649;28;20455;-73
2021/08/10 10:47:26;;;;;;;11.95;4.45;;;39.40;43.20;;;;;;5036629;28;20033;-73
2021/08/10 10:49:57;;;;;;;8.30;4.63;;;39.30;43.10;;;;;;5035202;28;20456;-73
2021/08/10 10:52:25;;;;;;;7.75;4.50;;;39.20;43.00;;;;;;5036414;28;20057;-73
2021/08/10 10:54:52;;;;;;;8.02;4.60;;;39.10;43.40;;;;;;5034981;28;20025;-73
2021/08/10 10:57:32;;;;;;;6.43;4.22;;;39.00;43.80;;;;;;5035343;28;20029;-72
2021/08/10 11:00:07;;;;;;;6.32;4.20;;;39.00;44.10;;;;;;5035014;28;20032;-72
2021/08/10 11:02:36;;;;;;;6.43;4.88;;;38.80;43.30;;;;;;5036360;28;20025;-72
2021/08/10 11:05:07;;;;;;;6.72;4.57;;;38.70;43.30;;;;;;5036086;28;20025;-72
2021/08/10 11:07:39;;;;;;;6.30;4.40;;;38.60;43.50;;;;;;5035039;28;20464;-72
2021/08/10 11:10:11;;;;;;;10.90;4.93;;;38.60;43.50;;;;;;5035055;28;20365;-73
2021/08/10 11:12:44;;;;;;;5.78;4.43;;;38.60;43.50;;;;;;5034843;28;20045;-73
2021/08/10 11:15:20;;;;;;;9.70;5.83;;;38.60;43.60;;;;;;5035315;28;20036;-73
2021/08/10 11:18:08;;;;;;;8.10;5.07;;;38.50;43.70;;;;;;5035949;28;20240;-72
2021/08/10 11:21:07;;;;;;;9.13;4.55;;;38.50;43.60;;;;;;5034476;28;20025;-72
2021/08/10 11:23:35;;;;;;;8.50;4.38;;;38.60;43.70;;;;;;5026632;28;20451;-73
2021/08/10 11:26:07;;;;;;;8.32;4.50;;;38.50;43.60;;;;;;5035805;28;20037;-73
2021/08/10 11:28:51;;;;;;;9.85;4.43;;;38.50;44.20;;;;;;5035184;28;20084;-72
2021/08/10 11:31:38;;;;;;;8.88;4.45;;;38.40;44.00;;;;;;5038712;28;20067;-72
2021/08/10 11:34:24;;;;;;;6.25;4.57;;;37.90;44.10;;;;;;5039532;28;20057;-73
2021/08/10 11:37:20;;;;;;;9.75;4.30;;;37.30;44.90;;;;;;5035553;28;20471;-72
2021/08/10 11:40:04;;;;;;;7.07;4.13;;;36.50;45.70;;;;;;5035161;28;20052;-72
2021/08/10 11:42:30;;;;;;;9.73;4.43;;;35.70;46.80;;;;;;5035785;28;20018;-72
2021/08/10 11:44:57;;;;;;;7.03;4.47;;;35.20;47.30;;;;;;5034041;28;20280;-72
2021/08/10 11:47:23;;;;;;;6.75;4.50;;;34.80;47.90;;;;;;5035374;28;20356;-72
2021/08/10 11:49:54;;;;;;;7.00;5.25;;;34.30;48.50;;;;;;5034114;28;20025;-72
2021/08/10 11:52:19;;;;;;;7.43;4.65;;;34.00;49.40;;;;;;5035322;28;20017;-72
2021/08/10 11:54:57;;;;;;;8.45;4.57;;;33.80;50.20;;;;;;5035140;28;20022;-72
2021/08/10 11:57:22;;;;;;;10.80;4.60;;;33.70;50.70;;;;;;5035328;28;20067;-72
2021/08/10 11:59:48;;;;;;;8.70;4.93;;;33.40;50.90;;;;;;5035214;28;20403;-72
2021/08/10 12:02:14;;;;;;;7.78;4.90;;;33.20;50.90;;;;;;5035204;28;20402;-72
2021/08/10 12:04:39;;;;;;;6.32;4.95;;;33.00;51.30;;;;;;5034922;28;20030;-72
2021/08/10 12:07:08;;;;;;;10.63;4.80;;;32.90;51.50;;;;;;5034822;28;20574;-72
2021/08/10 12:09:36;;;;;;;6.82;4.70;;;32.70;51.80;;;;;;5035021;28;20033;-72
2021/08/10 12:12:04;;;;;;;8.40;4.95;;;32.60;52.10;;;;;;5034063;28;20402;-72
2021/08/10 12:14:32;;;;;;;6.97;5.00;;;32.60;53.10;;;;;;5033601;28;20053;-72
2021/08/10 12:17:07;;;;;;;8.52;4.60;;;32.50;52.70;;;;;;5035150;28;20017;-72
2021/08/10 12:19:34;;;;;;;;;;;32.50;52.70;;;;;;5033688;28;20029;-72
2021/08/10 12:22:01;;;;;;;9.48;4.68;;;32.40;52.90;;;;;;5035002;28;19901;-72
2021/08/10 12:24:38;;;;;;;7.45;4.65;;;32.30;52.90;;;;;;5034899;28;20060;-72
2021/08/10 12:27:06;;;;;;;8.00;4.78;;;32.20;53.30;;;;;;5033713;28;20478;-72
2021/08/10 12:29:34;;;;;;;6.93;4.43;;;32.20;53.60;;;;;;5034700;28;20074;-72
2021/08/10 12:32:00;;;;;;;8.07;4.57;;;32.10;53.80;;;;;;5034417;28;20025;-72
2021/08/10 12:34:31;;;;;;;8.20;5.20;;;32.10;54.00;;;;;;5034773;28;20048;-72
2021/08/10 12:36:57;;;;;;;6.82;4.40;;;32.10;54.40;;;;;;5033312;28;20029;-71
2021/08/10 12:39:23;;;;;;;6.43;4.63;;;32.00;54.60;;;;;;5034545;28;20097;-72
2021/08/10 12:41:50;;;;;;;6.50;4.72;;;32.00;54.70;;;;;;5034440;28;20104;-72
2021/08/10 12:44:16;;;;;;;9.02;4.25;;;32.00;55.00;;;;;;5034401;28;20028;-72
2021/08/10 12:46:43;;;;;;;8.82;4.63;;;32.00;54.80;;;;;;5034385;28;20025;-72
2021/08/10 12:49:10;;;;;;;6.28;4.28;;;31.90;54.90;;;;;;5033415;28;20053;-72
2021/08/10 12:51:56;;;;;;;6.15;4.75;;;31.90;55.10;;;;;;5033028;28;20048;-72
2021/08/10 12:54:24;;;;;;;8.98;4.72;;;31.80;54.80;;;;;;5033024;28;20025;-72